Time;durP1;ratioP1;P1;durP2;ratioP2;P2;SDS_P1;SDS_P2;PMS_P1;PMS_P2;Temp;Humidity;BMP_temperature;BMP_pressure;BME280_temperature;BME280_humidity;BME280_pressure;Samples;Min_cycle;Max_cycle;Signal;HPM_P1;HPM_P2
2021/01/16 02:35:36;;;;;;;27.67;13.77;;;-0.60;99.90;;;;;;716816;22;21643;31
2021/01/16 02:38:41;;;;;;;26.07;13.23;;;-0.60;99.90;;;;;;5022301;28;20399;-93
2021/01/16 02:41:29;;;;;;;24.57;13.37;;;-0.50;99.90;;;;;;5022189;28;20022;-93
2021/01/16 02:44:16;;;;;;;24.97;12.83;;;-0.60;99.90;;;;;;4991725;28;20010;-93
2021/01/16 02:47:07;;;;;;;25.27;13.43;;;-0.60;99.90;;;;;;4985436;28;20575;-93
2021/01/16 02:49:40;;;;;;;28.30;13.83;;;-0.60;99.90;;;;;;4982864;28;20026;-94
2021/01/16 02:52:16;;;;;;;25.60;13.70;;;-0.60;99.90;;;;;;4984019;28;20033;-92
2021/01/16 02:54:43;;;;;;;27.73;14.60;;;-0.50;99.90;;;;;;4988903;28;20108;-93
2021/01/16 02:57:10;;;;;;;27.90;14.20;;;-0.60;99.90;;;;;;4993431;28;20006;-94
2021/01/16 02:59:45;;;;;;;25.17;14.30;;;-0.60;99.90;;;;;;5010483;28;20038;-95
2021/01/16 03:02:13;;;;;;;27.23;14.30;;;-0.60;99.90;;;;;;5006177;28;20007;-94
2021/01/16 03:04:39;;;;;;;25.93;14.10;;;-0.60;99.90;;;;;;4988227;28;20033;-94
2021/01/16 03:07:07;;;;;;;28.83;14.27;;;-0.60;99.90;;;;;;5017129;28;20097;-93
2021/01/16 03:09:34;;;;;;;30.23;15.40;;;-0.60;99.90;;;;;;4987684;28;20042;-93
2021/01/16 03:12:01;;;;;;;28.00;15.00;;;-0.70;99.90;;;;;;4983364;28;20086;-93
2021/01/16 03:14:30;;;;;;;28.50;14.87;;;-0.60;99.90;;;;;;4983431;28;20050;-93
2021/01/16 03:17:11;;;;;;;30.80;16.00;;;-0.60;99.90;;;;;;4983626;28;20015;-94
2021/01/16 03:19:45;;;;;;;27.73;14.90;;;-0.60;99.90;;;;;;4983597;28;20033;-93
2021/01/16 03:22:25;;;;;;;29.87;15.87;;;-0.60;99.90;;;;;;4984659;28;20039;-94
2021/01/16 03:24:53;;;;;;;30.10;15.80;;;-0.60;99.90;;;;;;4982445;28;20022;-93
2021/01/16 03:27:20;;;;;;;29.47;14.87;;;-0.60;99.90;;;;;;4983934;28;20118;-94
2021/01/16 03:29:46;;;;;;;30.80;14.00;;;-0.50;99.90;;;;;;4982788;28;20241;-94
2021/01/16 03:32:12;;;;;;;25.30;14.33;;;-0.60;99.90;;;;;;4986022;28;20046;-93
2021/01/16 03:34:40;;;;;;;27.27;14.60;;;-0.60;99.90;;;;;;4971814;28;20085;-94
2021/01/16 03:37:06;;;;;;;29.53;15.63;;;-0.60;99.90;;;;;;4983403;28;20098;-94
2021/01/16 03:39:32;;;;;;;27.83;15.33;;;-0.60;99.90;;;;;;4985173;28;20030;-93
2021/01/16 03:41:58;;;;;;;25.23;13.57;;;-0.60;99.90;;;;;;4982037;28;20467;-94
2021/01/16 03:44:24;;;;;;;27.57;14.63;;;-0.60;99.90;;;;;;4982736;28;20023;-94
2021/01/16 03:46:50;;;;;;;28.73;14.83;;;-0.70;99.90;;;;;;4999131;28;20347;-95
2021/01/16 03:49:15;;;;;;;29.87;15.07;;;-0.70;99.90;;;;;;4979917;28;20038;-94
2021/01/16 03:51:41;;;;;;;32.10;16.23;;;-0.70;99.90;;;;;;4983177;28;20023;-93
2021/01/16 03:54:08;;;;;;;29.57;15.07;;;-0.70;99.90;;;;;;4985250;28;20026;-93
2021/01/16 03:56:34;;;;;;;30.17;15.97;;;-0.70;99.90;;;;;;4983547;28;20090;-93
2021/01/16 03:58:59;;;;;;;29.90;16.53;;;-0.70;99.90;;;;;;4982522;28;20303;-94
2021/01/16 04:01:25;;;;;;;29.97;16.23;;;-0.60;99.90;;;;;;4982369;28;20034;-94
2021/01/16 04:03:51;;;;;;;36.40;16.30;;;-0.60;99.90;;;;;;4982316;28;20026;-94
2021/01/16 04:06:20;;;;;;;32.03;16.27;;;-0.60;99.90;;;;;;4981815;28;20121;-93
2021/01/16 04:08:45;;;;;;;35.73;17.13;;;-0.60;99.90;;;;;;4980010;28;20047;-94
2021/01/16 04:11:12;;;;;;;30.17;16.43;;;-0.70;99.90;;;;;;4982186;28;20073;-93
2021/01/16 04:13:38;;;;;;;31.77;16.73;;;-0.70;99.90;;;;;;4981179;28;20030;-93
2021/01/16 04:16:05;;;;;;;32.67;16.37;;;-0.70;99.90;;;;;;4977056;28;20034;-94
2021/01/16 04:18:31;;;;;;;32.80;17.10;;;-0.60;99.90;;;;;;4980784;28;20027;-94
2021/01/16 04:20:57;;;;;;;30.80;15.97;;;-0.60;99.90;;;;;;4981152;28;20084;-94
2021/01/16 04:23:22;;;;;;;31.10;16.83;;;-0.60;99.90;;;;;;4982193;28;20030;-93
2021/01/16 04:25:48;;;;;;;33.20;16.80;;;-0.60;99.90;;;;;;4985522;28;20018;-93
2021/01/16 04:28:14;;;;;;;34.23;18.00;;;-0.70;99.90;;;;;;4981701;28;20081;-93
2021/01/16 04:30:39;;;;;;;34.13;17.60;;;-0.70;99.90;;;;;;4982934;28;20073;-93
2021/01/16 04:33:06;;;;;;;33.27;17.43;;;-0.70;99.90;;;;;;4979335;28;20052;-93
2021/01/16 04:35:32;;;;;;;34.63;17.07;;;-0.70;99.90;;;;;;4975356;28;20038;-93
2021/01/16 04:37:58;;;;;;;32.83;16.73;;;-0.70;99.90;;;;;;4987908;28;20022;-93
2021/01/16 04:40:24;;;;;;;31.60;16.40;;;-0.70;99.90;;;;;;4990701;28;20498;-93
2021/01/16 04:42:52;;;;;;;36.20;18.30;;;-0.70;99.90;;;;;;4985087;28;20072;-93
2021/01/16 04:45:18;;;;;;;37.10;17.57;;;-0.70;99.90;;;;;;4983496;28;20038;-92
2021/01/16 04:47:46;;;;;;;36.27;18.23;;;-0.70;99.90;;;;;;4984411;28;20553;-93
2021/01/16 04:50:13;;;;;;;34.27;18.40;;;-0.70;99.90;;;;;;4983577;28;20034;-93
2021/01/16 04:52:41;;;;;;;37.60;18.27;;;-0.70;99.90;;;;;;4982917;28;20068;-94
2021/01/16 04:55:09;;;;;;;35.07;17.53;;;-0.80;99.90;;;;;;4981186;28;20014;-93
2021/01/16 04:57:37;;;;;;;36.70;18.17;;;-0.80;99.90;;;;;;4984158;28;20030;-94
2021/01/16 05:00:11;;;;;;;34.80;17.23;;;-0.80;99.90;;;;;;4982735;28;20058;-93
2021/01/16 05:02:39;;;;;;;35.73;17.63;;;-0.80;99.90;;;;;;4984827;28;20026;-94
2021/01/16 05:05:10;;;;;;;34.53;18.07;;;-0.70;99.90;;;;;;4987006;28;20018;-93
2021/01/16 05:07:37;;;;;;;35.23;18.07;;;-0.80;99.90;;;;;;4986237;28;20027;-93
2021/01/16 05:10:05;;;;;;;37.17;18.07;;;-0.70;99.90;;;;;;4983604;28;20034;-93
2021/01/16 05:12:31;;;;;;;35.47;17.40;;;-0.70;99.90;;;;;;4984216;28;20023;-94
2021/01/16 05:15:06;;;;;;;36.03;17.67;;;-0.70;99.90;;;;;;5001050;28;20018;-93
2021/01/16 05:17:36;;;;;;;32.23;16.53;;;-0.70;99.90;;;;;;4980804;28;20034;-93
2021/01/16 05:20:03;;;;;;;30.97;16.70;;;-0.70;99.90;;;;;;4983288;28;20029;-94
2021/01/16 05:22:28;;;;;;;32.80;16.93;;;-0.70;99.90;;;;;;4984647;28;20026;-94
2021/01/16 05:25:03;;;;;;;33.27;16.97;;;-0.70;99.90;;;;;;4984446;28;20019;-94
2021/01/16 05:27:33;;;;;;;32.77;16.07;;;-0.70;99.90;;;;;;4998986;28;20080;-94
2021/01/16 05:30:04;;;;;;;31.17;15.80;;;-0.70;99.90;;;;;;4986187;28;20019;-93
2021/01/16 05:32:30;;;;;;;30.97;15.90;;;-0.60;99.90;;;;;;4982756;28;20049;-93
2021/01/16 05:35:13;;;;;;;31.37;17.30;;;-0.70;99.90;;;;;;4977458;28;20022;-92
2021/01/16 05:37:38;;;;;;;29.40;15.57;;;-0.70;99.90;;;;;;4980872;28;20129;-92
2021/01/16 05:40:08;;;;;;;33.33;16.33;;;-0.70;99.90;;;;;;4985945;28;20069;-94
2021/01/16 05:42:33;;;;;;;33.80;16.70;;;-0.70;99.90;;;;;;4983362;28;20029;-93
2021/01/16 05:45:01;;;;;;;33.70;17.43;;;-0.70;99.90;;;;;;4986687;28;20112;-94
2021/01/16 05:47:28;;;;;;;31.33;16.63;;;-0.70;99.90;;;;;;4986537;28;20030;-93
2021/01/16 05:49:54;;;;;;;31.63;17.10;;;-0.70;99.90;;;;;;4989498;28;20030;-93
2021/01/16 05:52:20;;;;;;;32.87;17.20;;;-0.80;99.90;;;;;;4985410;28;20062;-93
2021/01/16 05:54:48;;;;;;;32.67;16.90;;;-0.90;99.90;;;;;;4987520;28;20120;-94
2021/01/16 05:57:16;;;;;;;34.53;16.40;;;-0.80;99.90;;;;;;4991274;28;20038;-94
2021/01/16 05:59:46;;;;;;;35.27;17.43;;;-0.80;99.90;;;;;;4988715;28;20026;-94
2021/01/16 06:02:13;;;;;;;32.70;17.63;;;-0.80;99.90;;;;;;4987910;28;20030;-94
2021/01/16 06:04:46;;;;;;;33.93;17.17;;;-0.80;99.90;;;;;;4986951;28;20030;-93
2021/01/16 06:07:12;;;;;;;34.33;17.73;;;-0.80;99.90;;;;;;4983530;28;20030;-93
2021/01/16 06:09:38;;;;;;;31.17;16.90;;;-0.90;99.90;;;;;;4984652;28;20061;-93
2021/01/16 06:12:06;;;;;;;35.57;17.53;;;-0.80;99.90;;;;;;4989194;28;20399;-92
2021/01/16 06:14:44;;;;;;;34.27;17.60;;;-0.80;99.90;;;;;;4988192;28;20018;-94
2021/01/16 06:17:12;;;;;;;33.93;16.90;;;-0.80;99.90;;;;;;4984217;28;20049;-93
2021/01/16 06:19:45;;;;;;;35.67;17.97;;;-0.80;99.90;;;;;;4988355;28;20035;-93
2021/01/16 06:22:12;;;;;;;34.07;17.60;;;-0.80;99.90;;;;;;4987078;28;20034;-94
2021/01/16 06:24:43;;;;;;;37.43;17.60;;;-0.80;99.90;;;;;;4987057;28;20105;-93
2021/01/16 06:27:23;;;;;;;36.53;18.27;;;-0.80;99.90;;;;;;4984636;28;20030;-92
2021/01/16 06:29:58;;;;;;;34.40;18.00;;;-0.80;99.90;;;;;;4985005;28;20030;-93
2021/01/16 06:32:25;;;;;;;35.60;17.47;;;-0.80;99.90;;;;;;4985496;28;20714;-94
2021/01/16 06:47:45;;;;;;;37.47;18.83;;;-0.80;99.90;;;;;;5021251;28;20375;-93
2021/01/16 06:50:11;;;;;;;35.07;17.87;;;-0.80;99.90;;;;;;5004316;28;20048;-93
2021/01/16 06:52:38;;;;;;;38.37;19.13;;;-0.80;99.90;;;;;;5004537;28;20112;-93
2021/01/16 06:55:07;;;;;;;35.10;18.17;;;-0.80;99.90;;;;;;4983585;28;20070;-93
2021/01/16 06:57:36;;;;;;;37.70;17.17;;;-0.80;99.90;;;;;;4980979;28;20022;-93
2021/01/16 07:00:07;;;;;;;36.07;17.10;;;-0.70;99.90;;;;;;4978516;28;20030;-93
2021/01/16 07:02:35;;;;;;;37.10;18.10;;;-0.80;99.90;;;;;;4978382;28;20026;-93
2021/01/16 07:05:17;;;;;;;36.00;17.87;;;-0.80;99.90;;;;;;4994441;28;20023;-94
2021/01/16 07:08:05;;;;;;;35.83;17.63;;;-0.80;99.90;;;;;;5016836;28;20030;-94
2021/01/16 07:10:52;;;;;;;;;;;;;;;;;;;;;
2021/01/16 07:13:28;;;;;;;32.50;16.67;;;-0.80;99.90;;;;;;4990891;28;20125;-93
2021/01/16 07:15:55;;;;;;;36.87;17.13;;;-0.80;99.90;;;;;;4981419;28;20027;-93
2021/01/16 07:33:53;;;;;;;35.00;18.07;;;-0.70;99.90;;;;;;4999458;28;20062;-94
2021/01/16 07:36:24;;;;;;;34.50;18.00;;;-0.70;99.90;;;;;;4999090;28;20161;-93
2021/01/16 07:38:52;;;;;;;33.43;17.93;;;-0.60;99.90;;;;;;4987186;28;20042;-94
2021/01/16 07:41:27;;;;;;;36.97;17.73;;;-0.70;99.90;;;;;;5007096;28;20090;-95
2021/01/16 07:44:10;;;;;;;36.37;18.43;;;-0.70;99.90;;;;;;5006633;28;20023;-95
2021/01/16 07:46:51;;;;;;;38.30;18.30;;;-0.70;99.90;;;;;;5005162;28;20030;-94
2021/01/16 07:49:27;;;;;;;36.63;17.70;;;-0.70;99.90;;;;;;5001154;28;20054;-95
2021/01/16 11:05:57;;;;;;;13.23;7.37;;;1.30;99.90;;;;;;5033714;28;20029;-96
2021/01/16 11:08:34;;;;;;;12.60;7.70;;;1.30;99.90;;;;;;5033920;28;20952;-93
2021/01/16 18:00:40;;;;;;;19.10;10.82;;;-0.90;99.90;;;;;;4261374;26;20049;-90
2021/01/16 18:03:26;;;;;;;19.67;11.50;;;-1.00;99.90;;;;;;5032308;28;20056;-96
2021/01/16 18:06:14;;;;;;;21.87;11.20;;;-0.70;99.90;;;;;;5046493;28;20041;-92
2021/01/16 18:09:02;;;;;;;23.87;11.87;;;-1.00;99.90;;;;;;5033592;28;20133;-91
2021/01/16 18:12:01;;;;;;;22.20;11.80;;;-1.10;99.90;;;;;;5047119;28;20021;-96
2021/01/16 20:16:10;;;;;;;18.80;8.80;;;-1.70;99.90;;;;;;5042687;28;20060;-94
2021/01/16 20:18:45;;;;;;;19.33;9.07;;;-1.60;99.90;;;;;;5043437;28;20104;-94
2021/01/16 20:21:13;;;;;;;17.60;8.97;;;-1.70;99.90;;;;;;5046480;28;20040;-95
2021/01/16 20:23:39;;;;;;;18.20;9.57;;;-1.80;99.90;;;;;;5039919;28;20025;-94
2021/01/16 20:26:13;;;;;;;18.07;9.17;;;-1.80;99.90;;;;;;5016679;28;20042;-93
2021/01/16 20:28:45;;;;;;;19.10;9.47;;;-1.80;99.90;;;;;;5027616;28;20113;-94
2021/01/16 20:31:36;;;;;;;17.90;9.23;;;-1.80;99.90;;;;;;5023807;28;20042;-94
2021/01/16 20:34:04;;;;;;;16.37;9.00;;;-1.90;99.90;;;;;;5035515;28;20029;-93
2021/01/16 20:36:39;;;;;;;17.63;9.43;;;-1.90;99.90;;;;;;5020885;28;20098;-93
2021/01/16 20:39:11;;;;;;;18.53;9.67;;;-2.10;99.90;;;;;;5042605;28;20052;-94
2021/01/16 20:41:39;;;;;;;15.48;8.38;;;-1.90;99.90;;;;;;5030456;28;20105;-94
2021/01/16 20:44:05;;;;;;;16.83;9.40;;;-2.00;99.90;;;;;;5029254;28;20534;-94
2021/01/16 20:47:02;;;;;;;19.37;10.57;;;-2.00;99.90;;;;;;5029501;28;20060;-94
2021/01/16 20:49:30;;;;;;;20.13;9.83;;;-1.90;99.90;;;;;;5024639;28;20026;-91
2021/01/16 20:52:05;;;;;;;19.10;9.63;;;-2.00;99.90;;;;;;5023406;28;20550;-94
2021/01/16 20:54:41;;;;;;;21.00;10.47;;;-2.00;99.90;;;;;;5016275;28;20094;-93
2021/01/16 20:57:10;;;;;;;20.60;11.00;;;-2.00;99.90;;;;;;5026508;28;20052;-95
2021/01/16 20:59:43;;;;;;;20.00;10.40;;;-2.10;99.90;;;;;;5022566;28;20084;-93
2021/01/16 21:02:10;;;;;;;17.75;9.38;;;-2.10;99.90;;;;;;5028668;28;20018;-93
2021/01/16 21:04:44;;;;;;;18.87;9.07;;;-2.10;99.90;;;;;;5030060;28;20090;-94
2021/01/16 21:07:12;;;;;;;21.13;10.77;;;-2.20;99.90;;;;;;5025764;28;20073;-89
2021/01/16 21:09:38;;;;;;;23.40;12.10;;;-2.20;99.90;;;;;;5019740;28;20026;-89
2021/01/16 21:12:22;;;;;;;21.60;10.10;;;-2.20;99.90;;;;;;5009819;28;20044;-90
2021/01/16 21:14:50;;;;;;;26.37;11.17;;;-2.30;99.90;;;;;;5017912;28;20108;-91
2021/01/16 21:17:26;;;;;;;19.93;11.20;;;-2.30;99.90;;;;;;5020398;28;20080;-92
